Terminal Aerodrome Forecast
Issued by NWS

Home | Current Version | Previous Version | Text Only | Print | Product List | Glossary On
Versions: 1 2 3 4 5 6 7 8 9 10 11 12 13 14 15 16
000
FTUS42 KMLB 222300
TAFLEE
TAF
KLEE 222324Z 2300/2324 14004KT P6SM SCT110 BKN250
     FM230400 VRB03KT P6SM FEW030 SCT120 BKN250
     FM231400 VRB02KT P6SM FEW005 BKN100 BKN250
     FM232000 15005KT P6SM VCTS FEW025 SCT040CB BKN150=

USA.gov is the U.S. government's official web portal to all federal, state and local government web resources and services.